sensor_id;sensor_type;location;lat;lon;timestamp;P1;durP1;ratioP1;P2;durP2;ratioP2
29280;SDS011;25048;49.590;11.026;2023-04-28T00:01:20;717.07;;;374.73;;
29280;SDS011;25048;49.590;11.026;2023-04-28T00:03:48;700.03;;;330.23;;
29280;SDS011;25048;49.590;11.026;2023-04-28T00:06:15;699.43;;;332.17;;
29280;SDS011;25048;49.590;11.026;2023-04-28T00:08:43;685.67;;;320.47;;
29280;SDS011;25048;49.590;11.026;2023-04-28T00:11:10;681.33;;;314.57;;
29280;SDS011;25048;49.590;11.026;2023-04-28T00:13:38;675.90;;;299.23;;
29280;SDS011;25048;49.590;11.026;2023-04-28T00:16:05;670.63;;;286.87;;
29280;SDS011;25048;49.590;11.026;2023-04-28T00:18:33;665.97;;;287.07;;
29280;SDS011;25048;49.590;11.026;2023-04-28T00:21:00;680.27;;;328.17;;
29280;SDS011;25048;49.590;11.026;2023-04-28T00:23:28;664.60;;;289.97;;
29280;SDS011;25048;49.590;11.026;2023-04-28T00:25:55;678.13;;;311.23;;
29280;SDS011;25048;49.590;11.026;2023-04-28T00:28:23;675.83;;;307.27;;
29280;SDS011;25048;49.590;11.026;2023-04-28T00:30:50;672.83;;;310.67;;
29280;SDS011;25048;49.590;11.026;2023-04-28T00:33:18;667.40;;;303.90;;
29280;SDS011;25048;49.590;11.026;2023-04-28T00:35:45;698.87;;;350.93;;
29280;SDS011;25048;49.590;11.026;2023-04-28T00:38:13;736.30;;;385.17;;
29280;SDS011;25048;49.590;11.026;2023-04-28T00:40:40;684.57;;;316.33;;
29280;SDS011;25048;49.590;11.026;2023-04-28T00:43:08;687.20;;;311.80;;
29280;SDS011;25048;49.590;11.026;2023-04-28T00:45:35;679.03;;;301.00;;
29280;SDS011;25048;49.590;11.026;2023-04-28T00:48:03;678.87;;;293.17;;
29280;SDS011;25048;49.590;11.026;2023-04-28T00:50:31;679.70;;;305.90;;
29280;SDS011;25048;49.590;11.026;2023-04-28T00:52:59;681.30;;;303.53;;
29280;SDS011;25048;49.590;11.026;2023-04-28T00:55:26;684.53;;;308.13;;
29280;SDS011;25048;49.590;11.026;2023-04-28T00:57:57;662.70;;;276.03;;
29280;SDS011;25048;49.590;11.026;2023-04-28T01:00:26;674.33;;;290.83;;
29280;SDS011;25048;49.590;11.026;2023-04-28T01:02:53;720.67;;;339.20;;
29280;SDS011;25048;49.590;11.026;2023-04-28T01:05:25;669.40;;;286.17;;
29280;SDS011;25048;49.590;11.026;2023-04-28T01:07:54;667.23;;;261.77;;
29280;SDS011;25048;49.590;11.026;2023-04-28T01:10:21;710.87;;;339.40;;
29280;SDS011;25048;49.590;11.026;2023-04-28T01:12:49;749.03;;;387.73;;
29280;SDS011;25048;49.590;11.026;2023-04-28T01:15:16;733.30;;;385.53;;
29280;SDS011;25048;49.590;11.026;2023-04-28T01:17:46;731.30;;;389.83;;
29280;SDS011;25048;49.590;11.026;2023-04-28T01:20:14;736.23;;;398.03;;
29280;SDS011;25048;49.590;11.026;2023-04-28T01:22:41;676.83;;;296.03;;
29280;SDS011;25048;49.590;11.026;2023-04-28T01:25:09;708.70;;;344.67;;
29280;SDS011;25048;49.590;11.026;2023-04-28T01:27:36;726.87;;;378.57;;
29280;SDS011;25048;49.590;11.026;2023-04-28T01:30:04;729.23;;;383.83;;
29280;SDS011;25048;49.590;11.026;2023-04-28T01:32:32;739.60;;;396.90;;
29280;SDS011;25048;49.590;11.026;2023-04-28T01:35:00;742.30;;;401.77;;
29280;SDS011;25048;49.590;11.026;2023-04-28T01:37:28;736.53;;;394.70;;
29280;SDS011;25048;49.590;11.026;2023-04-28T01:39:55;738.27;;;408.83;;
29280;SDS011;25048;49.590;11.026;2023-04-28T01:42:23;735.93;;;398.97;;
29280;SDS011;25048;49.590;11.026;2023-04-28T01:44:50;758.67;;;425.67;;
29280;SDS011;25048;49.590;11.026;2023-04-28T01:47:18;749.80;;;418.90;;
29280;SDS011;25048;49.590;11.026;2023-04-28T01:49:45;738.27;;;400.30;;
29280;SDS011;25048;49.590;11.026;2023-04-28T01:52:14;735.10;;;393.67;;
29280;SDS011;25048;49.590;11.026;2023-04-28T01:54:44;725.43;;;371.43;;
29280;SDS011;25048;49.590;11.026;2023-04-28T01:57:11;720.43;;;372.00;;
29280;SDS011;25048;49.590;11.026;2023-04-28T01:59:38;701.23;;;331.90;;
29280;SDS011;25048;49.590;11.026;2023-04-28T02:02:06;686.90;;;323.77;;
29280;SDS011;25048;49.590;11.026;2023-04-28T02:04:34;673.40;;;294.27;;
29280;SDS011;25048;49.590;11.026;2023-04-28T02:07:03;681.17;;;310.90;;
29280;SDS011;25048;49.590;11.026;2023-04-28T02:09:31;676.53;;;316.03;;
29280;SDS011;25048;49.590;11.026;2023-04-28T02:11:59;725.67;;;386.33;;
29280;SDS011;25048;49.590;11.026;2023-04-28T02:14:27;727.63;;;385.23;;
29280;SDS011;25048;49.590;11.026;2023-04-28T02:17:00;688.70;;;327.77;;
29280;SDS011;25048;49.590;11.026;2023-04-28T02:19:30;686.80;;;316.90;;
29280;SDS011;25048;49.590;11.026;2023-04-28T02:21:57;680.13;;;321.77;;
29280;SDS011;25048;49.590;11.026;2023-04-28T02:24:25;674.13;;;308.73;;
29280;SDS011;25048;49.590;11.026;2023-04-28T02:26:52;670.70;;;307.57;;
29280;SDS011;25048;49.590;11.026;2023-04-28T02:29:20;670.57;;;298.27;;
29280;SDS011;25048;49.590;11.026;2023-04-28T02:31:49;671.63;;;304.00;;
29280;SDS011;25048;49.590;11.026;2023-04-28T02:34:16;702.20;;;344.10;;
29280;SDS011;25048;49.590;11.026;2023-04-28T02:36:44;694.37;;;334.63;;
29280;SDS011;25048;49.590;11.026;2023-04-28T02:39:13;684.37;;;323.47;;
29280;SDS011;25048;49.590;11.026;2023-04-28T02:41:40;682.03;;;311.10;;
29280;SDS011;25048;49.590;11.026;2023-04-28T02:44:08;674.30;;;309.23;;
29280;SDS011;25048;49.590;11.026;2023-04-28T02:46:35;767.50;;;469.23;;
29280;SDS011;25048;49.590;11.026;2023-04-28T02:49:03;755.13;;;445.70;;
29280;SDS011;25048;49.590;11.026;2023-04-28T02:51:30;751.13;;;440.63;;
29280;SDS011;25048;49.590;11.026;2023-04-28T02:53:58;755.13;;;461.90;;
29280;SDS011;25048;49.590;11.026;2023-04-28T02:56:26;753.73;;;451.30;;
29280;SDS011;25048;49.590;11.026;2023-04-28T02:58:54;757.90;;;457.57;;
29280;SDS011;25048;49.590;11.026;2023-04-28T03:01:22;754.47;;;452.73;;
29280;SDS011;25048;49.590;11.026;2023-04-28T03:03:49;755.13;;;453.20;;
29280;SDS011;25048;49.590;11.026;2023-04-28T03:06:17;757.27;;;459.63;;
29280;SDS011;25048;49.590;11.026;2023-04-28T03:08:44;749.10;;;443.97;;
29280;SDS011;25048;49.590;11.026;2023-04-28T03:11:12;770.07;;;479.77;;
29280;SDS011;25048;49.590;11.026;2023-04-28T03:13:39;730.23;;;407.87;;
29280;SDS011;25048;49.590;11.026;2023-04-28T03:16:07;727.70;;;409.20;;
29280;SDS011;25048;49.590;11.026;2023-04-28T03:18:34;747.70;;;444.40;;
29280;SDS011;25048;49.590;11.026;2023-04-28T03:21:02;724.53;;;407.03;;
29280;SDS011;25048;49.590;11.026;2023-04-28T03:23:29;714.80;;;388.23;;
29280;SDS011;25048;49.590;11.026;2023-04-28T03:25:57;724.00;;;408.47;;
29280;SDS011;25048;49.590;11.026;2023-04-28T03:28:24;715.30;;;393.70;;
29280;SDS011;25048;49.590;11.026;2023-04-28T03:30:52;731.30;;;398.30;;
29280;SDS011;25048;49.590;11.026;2023-04-28T03:33:19;744.80;;;423.53;;
29280;SDS011;25048;49.590;11.026;2023-04-28T03:35:47;751.67;;;434.63;;
29280;SDS011;25048;49.590;11.026;2023-04-28T03:38:14;747.57;;;429.17;;
29280;SDS011;25048;49.590;11.026;2023-04-28T03:40:42;742.00;;;425.30;;
29280;SDS011;25048;49.590;11.026;2023-04-28T03:43:09;738.53;;;409.40;;
29280;SDS011;25048;49.590;11.026;2023-04-28T03:45:37;743.97;;;423.90;;
29280;SDS011;25048;49.590;11.026;2023-04-28T03:48:06;742.63;;;418.37;;
29280;SDS011;25048;49.590;11.026;2023-04-28T03:50:33;734.77;;;413.57;;
29280;SDS011;25048;49.590;11.026;2023-04-28T03:53:01;729.67;;;405.63;;
29280;SDS011;25048;49.590;11.026;2023-04-28T03:55:29;738.10;;;417.47;;
29280;SDS011;25048;49.590;11.026;2023-04-28T03:57:57;730.43;;;410.77;;
29280;SDS011;25048;49.590;11.026;2023-04-28T04:00:25;726.77;;;405.07;;
29280;SDS011;25048;49.590;11.026;2023-04-28T04:02:52;715.23;;;402.57;;
29280;SDS011;25048;49.590;11.026;2023-04-28T04:05:20;706.73;;;377.73;;
29280;SDS011;25048;49.590;11.026;2023-04-28T04:07:47;717.73;;;402.00;;
29280;SDS011;25048;49.590;11.026;2023-04-28T04:10:15;715.87;;;401.60;;
29280;SDS011;25048;49.590;11.026;2023-04-28T04:12:42;711.87;;;395.67;;
29280;SDS011;25048;49.590;11.026;2023-04-28T04:15:10;713.67;;;391.43;;
29280;SDS011;25048;49.590;11.026;2023-04-28T04:17:37;722.20;;;409.97;;
29280;SDS011;25048;49.590;11.026;2023-04-28T04:20:05;720.73;;;399.57;;
29280;SDS011;25048;49.590;11.026;2023-04-28T04:22:33;720.87;;;407.57;;
29280;SDS011;25048;49.590;11.026;2023-04-28T04:25:01;707.70;;;374.67;;
29280;SDS011;25048;49.590;11.026;2023-04-28T04:27:28;713.20;;;387.10;;
29280;SDS011;25048;49.590;11.026;2023-04-28T04:29:56;691.60;;;358.80;;
29280;SDS011;25048;49.590;11.026;2023-04-28T04:32:23;692.27;;;365.40;;
29280;SDS011;25048;49.590;11.026;2023-04-28T04:34:51;685.77;;;342.07;;
29280;SDS011;25048;49.590;11.026;2023-04-28T04:37:18;690.30;;;355.80;;
29280;SDS011;25048;49.590;11.026;2023-04-28T04:39:46;687.23;;;352.07;;
29280;SDS011;25048;49.590;11.026;2023-04-28T04:42:13;689.97;;;351.87;;
29280;SDS011;25048;49.590;11.026;2023-04-28T04:44:41;692.97;;;350.73;;
29280;SDS011;25048;49.590;11.026;2023-04-28T04:47:08;686.50;;;346.23;;
29280;SDS011;25048;49.590;11.026;2023-04-28T04:49:36;681.50;;;346.53;;
29280;SDS011;25048;49.590;11.026;2023-04-28T04:52:03;682.70;;;351.57;;
29280;SDS011;25048;49.590;11.026;2023-04-28T04:54:31;687.03;;;353.67;;
29280;SDS011;25048;49.590;11.026;2023-04-28T04:56:59;680.73;;;341.30;;
29280;SDS011;25048;49.590;11.026;2023-04-28T04:59:27;680.97;;;335.30;;
29280;SDS011;25048;49.590;11.026;2023-04-28T05:01:54;694.30;;;367.83;;
29280;SDS011;25048;49.590;11.026;2023-04-28T05:04:22;700.03;;;360.40;;
29280;SDS011;25048;49.590;11.026;2023-04-28T05:06:49;819.93;;;535.57;;
29280;SDS011;25048;49.590;11.026;2023-04-28T05:09:17;725.80;;;500.83;;
29280;SDS011;25048;49.590;11.026;2023-04-28T05:11:45;726.53;;;407.50;;
29280;SDS011;25048;49.590;11.026;2023-04-28T05:14:12;689.50;;;348.77;;
29280;SDS011;25048;49.590;11.026;2023-04-28T05:16:40;705.03;;;367.77;;
29280;SDS011;25048;49.590;11.026;2023-04-28T05:19:08;713.70;;;383.37;;
29280;SDS011;25048;49.590;11.026;2023-04-28T05:21:35;747.37;;;524.97;;
29280;SDS011;25048;49.590;11.026;2023-04-28T05:24:03;815.27;;;559.37;;
29280;SDS011;25048;49.590;11.026;2023-04-28T05:26:31;704.13;;;580.47;;
29280;SDS011;25048;49.590;11.026;2023-04-28T05:28:58;685.10;;;572.40;;
29280;SDS011;25048;49.590;11.026;2023-04-28T05:31:26;762.83;;;590.17;;
29280;SDS011;25048;49.590;11.026;2023-04-28T05:33:53;781.37;;;592.43;;
29280;SDS011;25048;49.590;11.026;2023-04-28T05:36:21;818.57;;;593.83;;
29280;SDS011;25048;49.590;11.026;2023-04-28T05:38:48;670.73;;;607.23;;
29280;SDS011;25048;49.590;11.026;2023-04-28T05:41:16;630.13;;;570.03;;
29280;SDS011;25048;49.590;11.026;2023-04-28T05:43:43;678.83;;;603.60;;
29280;SDS011;25048;49.590;11.026;2023-04-28T05:46:12;733.97;;;601.93;;
29280;SDS011;25048;49.590;11.026;2023-04-28T05:48:40;761.30;;;585.50;;
29280;SDS011;25048;49.590;11.026;2023-04-28T05:51:07;756.57;;;579.30;;
29280;SDS011;25048;49.590;11.026;2023-04-28T05:53:35;791.53;;;600.57;;
29280;SDS011;25048;49.590;11.026;2023-04-28T05:56:02;802.37;;;597.43;;
29280;SDS011;25048;49.590;11.026;2023-04-28T05:58:30;768.97;;;599.40;;
29280;SDS011;25048;49.590;11.026;2023-04-28T06:00:57;764.33;;;600.57;;
29280;SDS011;25048;49.590;11.026;2023-04-28T06:03:25;776.37;;;598.10;;
29280;SDS011;25048;49.590;11.026;2023-04-28T06:05:53;762.87;;;600.53;;
29280;SDS011;25048;49.590;11.026;2023-04-28T06:08:20;788.03;;;585.60;;
29280;SDS011;25048;49.590;11.026;2023-04-28T06:10:48;795.13;;;581.13;;
29280;SDS011;25048;49.590;11.026;2023-04-28T06:13:15;807.53;;;582.87;;
29280;SDS011;25048;49.590;11.026;2023-04-28T06:15:43;817.17;;;597.23;;
29280;SDS011;25048;49.590;11.026;2023-04-28T06:18:10;818.13;;;606.50;;
29280;SDS011;25048;49.590;11.026;2023-04-28T06:20:38;819.90;;;602.20;;
29280;SDS011;25048;49.590;11.026;2023-04-28T06:23:05;817.87;;;609.20;;
29280;SDS011;25048;49.590;11.026;2023-04-28T06:25:34;823.80;;;612.53;;
29280;SDS011;25048;49.590;11.026;2023-04-28T06:28:02;825.83;;;589.63;;
29280;SDS011;25048;49.590;11.026;2023-04-28T06:30:31;837.20;;;614.83;;
29280;SDS011;25048;49.590;11.026;2023-04-28T06:32:58;841.37;;;615.40;;
29280;SDS011;25048;49.590;11.026;2023-04-28T06:35:26;841.40;;;626.33;;
29280;SDS011;25048;49.590;11.026;2023-04-28T06:37:54;838.37;;;621.73;;
29280;SDS011;25048;49.590;11.026;2023-04-28T06:40:22;706.77;;;395.10;;
29280;SDS011;25048;49.590;11.026;2023-04-28T06:42:50;704.47;;;401.10;;
29280;SDS011;25048;49.590;11.026;2023-04-28T06:45:17;782.80;;;548.90;;
29280;SDS011;25048;49.590;11.026;2023-04-28T06:47:45;781.73;;;544.13;;
29280;SDS011;25048;49.590;11.026;2023-04-28T06:50:12;788.67;;;561.77;;
29280;SDS011;25048;49.590;11.026;2023-04-28T06:52:41;720.17;;;420.37;;
29280;SDS011;25048;49.590;11.026;2023-04-28T06:55:08;749.50;;;494.07;;
29280;SDS011;25048;49.590;11.026;2023-04-28T06:57:36;787.53;;;557.87;;
29280;SDS011;25048;49.590;11.026;2023-04-28T07:00:04;794.93;;;562.47;;
29280;SDS011;25048;49.590;11.026;2023-04-28T07:02:32;779.60;;;548.97;;
29280;SDS011;25048;49.590;11.026;2023-04-28T07:05:01;791.60;;;557.17;;
29280;SDS011;25048;49.590;11.026;2023-04-28T07:07:29;794.57;;;571.40;;
29280;SDS011;25048;49.590;11.026;2023-04-28T07:09:57;817.77;;;612.27;;
29280;SDS011;25048;49.590;11.026;2023-04-28T07:12:26;835.43;;;619.80;;
29280;SDS011;25048;49.590;11.026;2023-04-28T07:14:53;793.37;;;543.83;;
29280;SDS011;25048;49.590;11.026;2023-04-28T07:17:21;761.93;;;503.83;;
29280;SDS011;25048;49.590;11.026;2023-04-28T07:19:48;745.53;;;462.30;;
29280;SDS011;25048;49.590;11.026;2023-04-28T07:22:16;749.43;;;469.57;;
29280;SDS011;25048;49.590;11.026;2023-04-28T07:24:43;733.57;;;441.67;;
29280;SDS011;25048;49.590;11.026;2023-04-28T07:27:11;748.03;;;467.90;;
29280;SDS011;25048;49.590;11.026;2023-04-28T07:29:38;750.10;;;465.10;;
29280;SDS011;25048;49.590;11.026;2023-04-28T07:32:06;761.97;;;489.43;;
29280;SDS011;25048;49.590;11.026;2023-04-28T07:34:35;746.30;;;461.07;;
29280;SDS011;25048;49.590;11.026;2023-04-28T07:37:04;751.27;;;469.57;;
29280;SDS011;25048;49.590;11.026;2023-04-28T07:39:32;749.77;;;458.17;;
29280;SDS011;25048;49.590;11.026;2023-04-28T07:42:00;753.30;;;469.97;;
29280;SDS011;25048;49.590;11.026;2023-04-28T07:44:28;763.43;;;484.27;;
29280;SDS011;25048;49.590;11.026;2023-04-28T07:46:57;762.77;;;473.37;;
29280;SDS011;25048;49.590;11.026;2023-04-28T07:49:29;749.93;;;455.67;;
29280;SDS011;25048;49.590;11.026;2023-04-28T07:51:57;759.53;;;477.03;;
29280;SDS011;25048;49.590;11.026;2023-04-28T07:54:24;753.67;;;457.60;;
29280;SDS011;25048;49.590;11.026;2023-04-28T07:56:52;758.57;;;474.60;;
29280;SDS011;25048;49.590;11.026;2023-04-28T07:59:22;752.80;;;474.30;;
29280;SDS011;25048;49.590;11.026;2023-04-28T08:01:50;755.83;;;472.50;;
29280;SDS011;25048;49.590;11.026;2023-04-28T08:04:18;753.20;;;467.70;;
29280;SDS011;25048;49.590;11.026;2023-04-28T08:06:45;745.13;;;452.73;;
29280;SDS011;25048;49.590;11.026;2023-04-28T08:09:13;750.63;;;463.53;;
29280;SDS011;25048;49.590;11.026;2023-04-28T08:11:41;744.37;;;444.90;;
29280;SDS011;25048;49.590;11.026;2023-04-28T08:14:08;743.33;;;448.53;;
29280;SDS011;25048;49.590;11.026;2023-04-28T08:16:36;732.50;;;427.83;;
29280;SDS011;25048;49.590;11.026;2023-04-28T08:19:05;738.13;;;443.30;;
29280;SDS011;25048;49.590;11.026;2023-04-28T08:21:33;740.23;;;443.20;;
29280;SDS011;25048;49.590;11.026;2023-04-28T08:24:01;730.23;;;421.60;;
29280;SDS011;25048;49.590;11.026;2023-04-28T08:26:28;739.63;;;443.37;;
29280;SDS011;25048;49.590;11.026;2023-04-28T08:28:56;725.27;;;418.93;;
29280;SDS011;25048;49.590;11.026;2023-04-28T08:31:23;725.00;;;415.27;;
29280;SDS011;25048;49.590;11.026;2023-04-28T08:33:51;724.47;;;425.53;;
29280;SDS011;25048;49.590;11.026;2023-04-28T08:36:18;712.43;;;386.80;;
29280;SDS011;25048;49.590;11.026;2023-04-28T08:38:46;716.60;;;413.60;;
29280;SDS011;25048;49.590;11.026;2023-04-28T08:41:14;713.57;;;401.60;;
29280;SDS011;25048;49.590;11.026;2023-04-28T08:43:42;706.17;;;387.80;;
29280;SDS011;25048;49.590;11.026;2023-04-28T08:46:10;710.93;;;398.40;;
29280;SDS011;25048;49.590;11.026;2023-04-28T08:48:43;709.77;;;406.90;;
29280;SDS011;25048;49.590;11.026;2023-04-28T08:51:15;706.43;;;399.53;;
29280;SDS011;25048;49.590;11.026;2023-04-28T08:53:49;706.33;;;391.30;;
29280;SDS011;25048;49.590;11.026;2023-04-28T08:56:18;699.57;;;393.47;;
29280;SDS011;25048;49.590;11.026;2023-04-28T08:58:49;703.20;;;391.73;;
29280;SDS011;25048;49.590;11.026;2023-04-28T09:01:18;704.50;;;405.50;;
29280;SDS011;25048;49.590;11.026;2023-04-28T09:03:46;702.63;;;394.90;;
29280;SDS011;25048;49.590;11.026;2023-04-28T09:06:13;695.90;;;384.67;;
29280;SDS011;25048;49.590;11.026;2023-04-28T09:08:41;693.77;;;377.63;;
29280;SDS011;25048;49.590;11.026;2023-04-28T09:11:09;697.20;;;379.57;;
29280;SDS011;25048;49.590;11.026;2023-04-28T09:13:38;689.23;;;369.27;;
29280;SDS011;25048;49.590;11.026;2023-04-28T09:16:06;690.63;;;375.47;;
29280;SDS011;25048;49.590;11.026;2023-04-28T09:18:34;695.03;;;378.40;;
29280;SDS011;25048;49.590;11.026;2023-04-28T09:21:02;685.03;;;347.53;;
29280;SDS011;25048;49.590;11.026;2023-04-28T09:23:35;687.90;;;361.77;;
29280;SDS011;25048;49.590;11.026;2023-04-28T09:26:16;695.93;;;385.53;;
29280;SDS011;25048;49.590;11.026;2023-04-28T09:28:44;697.37;;;374.77;;
29280;SDS011;25048;49.590;11.026;2023-04-28T09:31:25;721.87;;;419.97;;
29280;SDS011;25048;49.590;11.026;2023-04-28T09:33:58;681.10;;;363.47;;
29280;SDS011;25048;49.590;11.026;2023-04-28T09:36:29;688.50;;;383.57;;
29280;SDS011;25048;49.590;11.026;2023-04-28T09:38:57;691.00;;;388.27;;
29280;SDS011;25048;49.590;11.026;2023-04-28T09:41:41;699.40;;;407.73;;
29280;SDS011;25048;49.590;11.026;2023-04-28T09:46:40;695.77;;;396.63;;
29280;SDS011;25048;49.590;11.026;2023-04-28T09:49:09;698.70;;;410.93;;
29280;SDS011;25048;49.590;11.026;2023-04-28T09:51:38;710.93;;;447.37;;
29280;SDS011;25048;49.590;11.026;2023-04-28T09:54:06;708.10;;;439.17;;
29280;SDS011;25048;49.590;11.026;2023-04-28T09:56:34;711.87;;;464.97;;
29280;SDS011;25048;49.590;11.026;2023-04-28T09:59:03;712.77;;;465.67;;
29280;SDS011;25048;49.590;11.026;2023-04-28T10:01:32;717.70;;;469.40;;
29280;SDS011;25048;49.590;11.026;2023-04-28T10:04:01;745.73;;;522.13;;
29280;SDS011;25048;49.590;11.026;2023-04-28T10:06:35;740.23;;;500.53;;
29280;SDS011;25048;49.590;11.026;2023-04-28T10:09:02;722.97;;;467.77;;
29280;SDS011;25048;49.590;11.026;2023-04-28T10:11:31;730.93;;;472.63;;
29280;SDS011;25048;49.590;11.026;2023-04-28T10:13:59;727.77;;;484.63;;
29280;SDS011;25048;49.590;11.026;2023-04-28T10:16:29;736.57;;;496.43;;
29280;SDS011;25048;49.590;11.026;2023-04-28T10:18:57;708.87;;;437.83;;
29280;SDS011;25048;49.590;11.026;2023-04-28T10:21:27;711.13;;;438.53;;
29280;SDS011;25048;49.590;11.026;2023-04-28T10:24:08;706.20;;;429.23;;
29280;SDS011;25048;49.590;11.026;2023-04-28T10:29:34;707.20;;;434.87;;
29280;SDS011;25048;49.590;11.026;2023-04-28T10:32:21;697.63;;;419.03;;
29280;SDS011;25048;49.590;11.026;2023-04-28T10:35:38;692.07;;;397.73;;
29280;SDS011;25048;49.590;11.026;2023-04-28T10:40:34;690.57;;;403.53;;
29280;SDS011;25048;49.590;11.026;2023-04-28T10:43:13;695.00;;;400.23;;
29280;SDS011;25048;49.590;11.026;2023-04-28T10:48:22;693.80;;;402.67;;
29280;SDS011;25048;49.590;11.026;2023-04-28T10:56:22;732.03;;;489.50;;
29280;SDS011;25048;49.590;11.026;2023-04-28T10:58:52;18.63;;;9.53;;
29280;SDS011;25048;49.590;11.026;2023-04-28T11:03:55;352.13;;;253.80;;
29280;SDS011;25048;49.590;11.026;2023-04-28T11:06:31;729.07;;;480.43;;
29280;SDS011;25048;49.590;11.026;2023-04-28T11:09:01;770.27;;;568.13;;
29280;SDS011;25048;49.590;11.026;2023-04-28T11:11:31;751.90;;;577.37;;
29280;SDS011;25048;49.590;11.026;2023-04-28T11:16:52;790.23;;;486.13;;
29280;SDS011;25048;49.590;11.026;2023-04-28T11:19:23;807.40;;;527.63;;
29280;SDS011;25048;49.590;11.026;2023-04-28T11:21:54;773.03;;;555.23;;
29280;SDS011;25048;49.590;11.026;2023-04-28T11:24:23;898.37;;;627.70;;
29280;SDS011;25048;49.590;11.026;2023-04-28T11:26:52;773.03;;;525.30;;
29280;SDS011;25048;49.590;11.026;2023-04-28T11:29:35;761.30;;;332.30;;
29280;SDS011;25048;49.590;11.026;2023-04-28T11:32:04;662.00;;;207.33;;
29280;SDS011;25048;49.590;11.026;2023-04-28T11:34:33;703.47;;;277.23;;
29280;SDS011;25048;49.590;11.026;2023-04-28T11:37:02;728.43;;;492.13;;
29280;SDS011;25048;49.590;11.026;2023-04-28T11:39:32;730.37;;;500.97;;
29280;SDS011;25048;49.590;11.026;2023-04-28T11:42:00;718.43;;;487.63;;
29280;SDS011;25048;49.590;11.026;2023-04-28T11:44:30;701.77;;;446.73;;
29280;SDS011;25048;49.590;11.026;2023-04-28T11:46:58;723.87;;;512.70;;
29280;SDS011;25048;49.590;11.026;2023-04-28T11:49:41;754.83;;;577.40;;
29280;SDS011;25048;49.590;11.026;2023-04-28T11:52:05;785.00;;;565.90;;
29280;SDS011;25048;49.590;11.026;2023-04-28T11:54:33;678.23;;;235.27;;
29280;SDS011;25048;49.590;11.026;2023-04-28T11:57:02;683.33;;;228.03;;
29280;SDS011;25048;49.590;11.026;2023-04-28T11:59:31;651.70;;;218.83;;
29280;SDS011;25048;49.590;11.026;2023-04-28T12:02:00;687.00;;;259.80;;
29280;SDS011;25048;49.590;11.026;2023-04-28T12:09:42;607.77;;;139.37;;
29280;SDS011;25048;49.590;11.026;2023-04-28T12:12:12;756.93;;;397.10;;
29280;SDS011;25048;49.590;11.026;2023-04-28T12:14:52;745.37;;;400.37;;
29280;SDS011;25048;49.590;11.026;2023-04-28T12:17:24;794.87;;;630.03;;
29280;SDS011;25048;49.590;11.026;2023-04-28T12:19:53;775.47;;;630.03;;
29280;SDS011;25048;49.590;11.026;2023-04-28T12:22:22;796.57;;;674.00;;
29280;SDS011;25048;49.590;11.026;2023-04-28T12:25:11;847.70;;;732.50;;
29280;SDS011;25048;49.590;11.026;2023-04-28T12:27:36;779.47;;;645.47;;
29280;SDS011;25048;49.590;11.026;2023-04-28T12:32:50;854.70;;;701.40;;
29280;SDS011;25048;49.590;11.026;2023-04-28T12:35:20;935.17;;;696.33;;
29280;SDS011;25048;49.590;11.026;2023-04-28T12:37:48;734.27;;;325.50;;
29280;SDS011;25048;49.590;11.026;2023-04-28T12:40:16;720.20;;;337.67;;
29280;SDS011;25048;49.590;11.026;2023-04-28T12:42:43;669.33;;;260.83;;
29280;SDS011;25048;49.590;11.026;2023-04-28T12:45:11;721.60;;;389.57;;
29280;SDS011;25048;49.590;11.026;2023-04-28T12:47:39;671.77;;;250.93;;
29280;SDS011;25048;49.590;11.026;2023-04-28T12:50:07;628.87;;;194.53;;
29280;SDS011;25048;49.590;11.026;2023-04-28T12:52:35;617.10;;;175.53;;
29280;SDS011;25048;49.590;11.026;2023-04-28T12:55:03;617.63;;;178.03;;
29280;SDS011;25048;49.590;11.026;2023-04-28T12:57:31;681.33;;;285.20;;
29280;SDS011;25048;49.590;11.026;2023-04-28T13:00:00;638.70;;;225.60;;
29280;SDS011;25048;49.590;11.026;2023-04-28T13:02:28;627.60;;;214.97;;
29280;SDS011;25048;49.590;11.026;2023-04-28T13:04:55;608.47;;;168.13;;
29280;SDS011;25048;49.590;11.026;2023-04-28T13:07:23;608.17;;;164.23;;
29280;SDS011;25048;49.590;11.026;2023-04-28T13:09:50;579.67;;;144.90;;
29280;SDS011;25048;49.590;11.026;2023-04-28T13:12:18;560.90;;;127.10;;
29280;SDS011;25048;49.590;11.026;2023-04-28T13:14:45;583.50;;;143.67;;
29280;SDS011;25048;49.590;11.026;2023-04-28T13:17:13;577.43;;;138.13;;
29280;SDS011;25048;49.590;11.026;2023-04-28T13:19:41;563.20;;;133.23;;
29280;SDS011;25048;49.590;11.026;2023-04-28T13:22:08;568.47;;;134.80;;
29280;SDS011;25048;49.590;11.026;2023-04-28T13:24:37;553.13;;;128.33;;
29280;SDS011;25048;49.590;11.026;2023-04-28T13:27:04;561.33;;;132.67;;
29280;SDS011;25048;49.590;11.026;2023-04-28T13:29:34;558.43;;;123.30;;
29280;SDS011;25048;49.590;11.026;2023-04-28T13:32:02;554.83;;;117.97;;
29280;SDS011;25048;49.590;11.026;2023-04-28T13:34:30;554.53;;;118.97;;
29280;SDS011;25048;49.590;11.026;2023-04-28T13:36:57;588.70;;;144.63;;
29280;SDS011;25048;49.590;11.026;2023-04-28T13:39:25;560.17;;;123.50;;
29280;SDS011;25048;49.590;11.026;2023-04-28T13:41:52;566.63;;;134.63;;
29280;SDS011;25048;49.590;11.026;2023-04-28T13:44:20;563.83;;;127.50;;
29280;SDS011;25048;49.590;11.026;2023-04-28T13:46:47;557.57;;;122.70;;
29280;SDS011;25048;49.590;11.026;2023-04-28T13:49:15;554.47;;;116.20;;
29280;SDS011;25048;49.590;11.026;2023-04-28T13:51:42;534.63;;;84.13;;
29280;SDS011;25048;49.590;11.026;2023-04-28T13:54:10;554.30;;;114.23;;
29280;SDS011;25048;49.590;11.026;2023-04-28T13:56:37;552.03;;;110.13;;
29280;SDS011;25048;49.590;11.026;2023-04-28T13:59:06;541.43;;;95.77;;
29280;SDS011;25048;49.590;11.026;2023-04-28T14:01:33;539.70;;;90.80;;
29280;SDS011;25048;49.590;11.026;2023-04-28T14:04:01;544.20;;;100.87;;
29280;SDS011;25048;49.590;11.026;2023-04-28T14:06:28;548.67;;;101.03;;
29280;SDS011;25048;49.590;11.026;2023-04-28T14:08:57;644.40;;;326.60;;
29280;SDS011;25048;49.590;11.026;2023-04-28T14:11:25;816.03;;;712.60;;
29280;SDS011;25048;49.590;11.026;2023-04-28T14:13:53;902.30;;;807.93;;
29280;SDS011;25048;49.590;11.026;2023-04-28T14:16:21;768.97;;;486.37;;
29280;SDS011;25048;49.590;11.026;2023-04-28T14:18:48;844.67;;;689.63;;
29280;SDS011;25048;49.590;11.026;2023-04-28T14:21:16;921.33;;;810.43;;